KRAC/RAC METAR and TAF weather

Enter ICAO airport designator
Station Type Date Time Source
KRAC METAR 2019/10/15 18:53 UTC NOAA

KRAC 151853Z AUTO 19011G19KT 10SM BKN028 17/09 A2969 RMK AO2 SLP054 T01720094


Station Type Date Time Source
KRAC Decoded METAR 2019/10/15 18:53 UTC NOAA

BATTEN INTERNATIONAL AIRPORT, WI, United States (KRAC) 42-46N 87-49W 203M
Oct 15, 2019 - 02:53 PM EDT / 2019.10.15 1853 UTC
Wind: from the S (190 degrees) at 13 MPH (11 KT) gusting to 22 MPH (19 KT):0
Visibility: 10 mile(s):0
Sky conditions: mostly cloudy
Temperature: 63.0 F (17.2 C)
Dew Point: 48.9 F (9.4 C)
Relative Humidity: 60%
Pressure (altimeter): 29.69 in. Hg (1005 hPa)
ob: KRAC 151853Z AUTO 19011G19KT 10SM BKN028 17/09 A2969 RMK AO2 SLP054 T01720094
cycle: 19

Station Type Date Time Source
KRAC TAF UTC NOAA

Error!

Example: see airport list